Time;durP1;ratioP1;P1;durP2;ratioP2;P2;SDS_P1;SDS_P2;PMS_P1;PMS_P2;Temp;Humidity;BMP_temperature;BMP_pressure;BME280_temperature;BME280_humidity;BME280_pressure;Samples;Min_cycle;Max_cycle;Signal;HPM_P1;HPM_P2
2023/05/16 00:02:20;;;;;;;4.55;1.33;;;8.10;99.90;;;;;;5080790;28;20104;-65
2023/05/16 00:04:47;;;;;;;0.30;0.30;;;8.00;99.90;;;;;;5116784;28;20084;-65
2023/05/16 00:07:13;;;;;;;0.40;0.40;;;8.00;99.90;;;;;;5096156;28;20048;-65
2023/05/16 00:09:39;;;;;;;0.57;0.40;;;8.00;99.90;;;;;;5094247;28;20047;-65
2023/05/16 00:12:05;;;;;;;1.20;0.65;;;8.00;99.90;;;;;;5095018;28;20042;-65
2023/05/16 00:14:30;;;;;;;0.20;0.20;;;7.90;99.90;;;;;;5094747;28;20047;-66
2023/05/16 00:16:57;;;;;;;1.77;0.32;;;7.90;99.90;;;;;;5112497;28;20036;-65
2023/05/16 00:19:25;;;;;;;3.53;0.55;;;7.90;99.90;;;;;;5094609;28;20040;-66
2023/05/16 00:21:51;;;;;;;0.30;0.30;;;7.90;99.90;;;;;;5094080;28;20547;-66
2023/05/16 00:24:17;;;;;;;2.03;0.82;;;7.80;99.90;;;;;;5094944;28;20043;-65
2023/05/16 00:26:43;;;;;;;1.20;0.65;;;7.80;99.90;;;;;;5112734;28;20118;-65
2023/05/16 00:29:09;;;;;;;1.63;0.70;;;7.70;99.90;;;;;;5093868;28;20050;-65
2023/05/16 00:31:35;;;;;;;3.03;0.65;;;7.70;99.90;;;;;;5094733;28;20039;-65
2023/05/16 00:34:00;;;;;;;0.30;0.20;;;7.60;99.90;;;;;;5112759;28;20512;-65
2023/05/16 00:36:27;;;;;;;0.60;0.30;;;7.50;99.90;;;;;;5094039;28;20040;-66
2023/05/16 00:38:53;;;;;;;1.58;0.77;;;7.40;99.90;;;;;;5094466;28;20042;-66
2023/05/16 00:41:19;;;;;;;1.38;0.65;;;7.30;99.90;;;;;;5094242;28;20418;-66
2023/05/16 00:43:45;;;;;;;0.20;0.20;;;7.20;99.90;;;;;;5093628;28;20051;-66
2023/05/16 00:46:11;;;;;;;0.35;0.30;;;7.10;99.90;;;;;;5112486;28;20036;-66
2023/05/16 00:48:37;;;;;;;2.75;0.80;;;7.10;99.90;;;;;;5073740;28;20121;-66
2023/05/16 00:51:03;;;;;;;5.50;0.52;;;7.10;99.90;;;;;;5090127;28;20048;-66
2023/05/16 00:53:29;;;;;;;0.52;0.20;;;7.00;99.90;;;;;;5090717;28;20097;-66
2023/05/16 00:55:55;;;;;;;0.63;0.40;;;6.90;99.90;;;;;;5090703;28;20036;-66
2023/05/16 00:58:22;;;;;;;0.90;0.35;;;6.90;99.90;;;;;;5073081;28;20036;-66
2023/05/16 01:00:48;;;;;;;1.85;0.73;;;6.90;99.90;;;;;;5090856;28;20116;-66
2023/05/16 01:03:14;;;;;;;0.30;0.28;;;6.80;99.90;;;;;;5090883;28;20040;-66
2023/05/16 01:05:40;;;;;;;1.30;0.45;;;6.80;99.90;;;;;;5091173;28;20044;-66
2023/05/16 01:08:06;;;;;;;0.20;0.20;;;6.70;99.90;;;;;;5090435;28;20048;-66
2023/05/16 01:10:42;;;;;;;4.03;0.77;;;6.70;99.90;;;;;;5090271;28;20040;-66
2023/05/16 01:13:15;;;;;;;1.30;0.50;;;6.70;99.90;;;;;;5091447;28;20071;-66
2023/05/16 01:15:49;;;;;;;0.30;0.22;;;6.60;99.90;;;;;;5090289;28;20032;-66
2023/05/16 01:18:26;;;;;;;1.10;0.50;;;6.60;99.90;;;;;;5072288;28;20046;-66
2023/05/16 01:21:02;;;;;;;5.05;0.50;;;6.60;99.90;;;;;;5073029;28;20492;-66
2023/05/16 01:24:12;;;;;;;1.35;0.22;;;6.60;99.90;;;;;;5090346;28;20098;-66
2023/05/16 01:26:39;;;;;;;0.73;0.73;;;6.60;99.90;;;;;;5090864;28;20498;-65
2023/05/16 01:29:06;;;;;;;0.63;0.52;;;6.50;99.90;;;;;;5091424;28;20058;-66
2023/05/16 01:31:32;;;;;;;0.45;0.30;;;6.60;99.90;;;;;;5090098;28;20055;-66
2023/05/16 01:33:58;;;;;;;2.05;0.55;;;6.50;99.90;;;;;;5091381;28;20032;-66
2023/05/16 01:36:47;;;;;;;3.65;0.57;;;6.50;99.90;;;;;;5091349;28;20503;-66
2023/05/16 01:39:39;;;;;;;2.83;0.47;;;6.50;99.90;;;;;;5090761;28;20463;-65
2023/05/16 01:42:13;;;;;;;2.53;1.40;;;6.60;99.90;;;;;;5085973;28;20048;-65
2023/05/16 01:44:41;;;;;;;0.22;0.22;;;6.70;99.90;;;;;;5089708;28;20078;-66
2023/05/16 01:47:12;;;;;;;1.80;0.38;;;6.70;99.90;;;;;;5088927;28;20040;-66
2023/05/16 01:49:50;;;;;;;0.28;0.28;;;6.70;99.90;;;;;;5089407;28;20067;-65
2023/05/16 01:52:30;;;;;;;0.20;0.20;;;6.70;99.90;;;;;;5090865;28;20052;-65
2023/05/16 01:54:59;;;;;;;1.55;0.73;;;6.70;99.90;;;;;;5071905;28;20055;-65
2023/05/16 01:57:26;;;;;;;1.33;0.45;;;6.60;99.90;;;;;;5089402;28;20040;-66
2023/05/16 01:59:52;;;;;;;0.25;0.20;;;6.60;99.90;;;;;;5089239;28;20704;-65
2023/05/16 02:02:18;;;;;;;0.63;0.40;;;6.60;99.90;;;;;;5089731;28;20788;-65
2023/05/16 02:04:45;;;;;;;2.63;0.45;;;6.60;99.90;;;;;;5072736;28;20042;-65
2023/05/16 02:07:13;;;;;;;0.20;0.20;;;6.50;99.90;;;;;;5090249;28;20365;-66
2023/05/16 02:09:39;;;;;;;2.28;0.52;;;6.50;99.90;;;;;;5072396;28;20507;-65
2023/05/16 02:12:05;;;;;;;0.73;0.65;;;6.50;99.90;;;;;;5089152;28;20043;-66
2023/05/16 02:14:31;;;;;;;0.68;0.50;;;6.50;99.90;;;;;;5089639;28;20093;-66
2023/05/16 02:16:57;;;;;;;0.88;0.30;;;6.50;99.90;;;;;;5088997;28;20118;-65
2023/05/16 02:19:23;;;;;;;0.20;0.20;;;6.50;99.90;;;;;;5089066;28;20044;-66
2023/05/16 02:21:49;;;;;;;0.82;0.70;;;6.50;99.90;;;;;;5090082;28;20036;-66
2023/05/16 02:24:15;;;;;;;0.50;0.50;;;6.50;99.90;;;;;;5088996;28;20040;-66
2023/05/16 02:26:41;;;;;;;0.10;0.10;;;6.50;99.90;;;;;;5072176;28;20046;-66
2023/05/16 02:29:08;;;;;;;0.38;0.28;;;6.50;99.90;;;;;;5071574;28;20403;-65
2023/05/16 02:31:34;;;;;;;0.20;0.20;;;6.50;99.90;;;;;;5088536;28;20115;-65
2023/05/16 02:34:00;;;;;;;0.10;0.10;;;6.50;99.90;;;;;;5088611;28;20516;-65
2023/05/16 02:36:26;;;;;;;0.22;0.22;;;6.40;99.90;;;;;;5089653;28;20071;-66
2023/05/16 02:38:52;;;;;;;0.55;0.30;;;6.40;99.90;;;;;;5090117;28;20032;-66
2023/05/16 02:41:21;;;;;;;2.03;0.50;;;6.40;99.90;;;;;;5090346;28;20361;-66
2023/05/16 02:43:47;;;;;;;0.38;0.30;;;6.40;99.90;;;;;;5071398;28;20067;-66
2023/05/16 02:46:26;;;;;;;1.00;0.40;;;6.40;99.90;;;;;;5071807;28;20048;-66
2023/05/16 02:48:53;;;;;;;3.22;0.47;;;6.40;99.90;;;;;;5097880;28;20064;-66
2023/05/16 02:51:21;;;;;;;0.55;0.25;;;6.40;99.90;;;;;;5110683;28;20383;-66
2023/05/16 02:53:47;;;;;;;2.20;0.35;;;6.40;99.90;;;;;;5092109;28;20691;-66
2023/05/16 02:56:13;;;;;;;6.78;1.10;;;6.40;99.90;;;;;;5109670;28;20118;-66
2023/05/16 02:58:40;;;;;;;6.32;0.82;;;6.40;99.90;;;;;;5075482;28;20082;-66
2023/05/16 03:01:06;;;;;;;0.47;0.35;;;6.40;99.90;;;;;;5075495;28;20051;-66
2023/05/16 03:03:34;;;;;;;0.45;0.30;;;6.30;99.90;;;;;;5109556;28;20484;-65
2023/05/16 03:06:00;;;;;;;0.30;0.20;;;6.30;99.90;;;;;;5110234;28;20085;-65
2023/05/16 03:08:26;;;;;;;0.98;0.75;;;6.30;99.90;;;;;;5092079;28;20040;-66
2023/05/16 03:10:51;;;;;;;1.33;0.30;;;6.40;99.90;;;;;;5091326;28;20403;-66
2023/05/16 03:13:17;;;;;;;0.95;0.70;;;6.30;99.90;;;;;;5075036;28;20044;-65
2023/05/16 03:15:43;;;;;;;0.50;0.50;;;6.30;99.90;;;;;;5091733;28;20093;-65
2023/05/16 03:18:10;;;;;;;4.05;0.47;;;6.30;99.90;;;;;;5091395;28;20036;-65
2023/05/16 03:20:37;;;;;;;0.47;0.30;;;6.20;99.90;;;;;;5091929;28;20503;-66
2023/05/16 03:23:06;;;;;;;0.20;0.20;;;6.20;99.90;;;;;;5110147;28;20616;-65
2023/05/16 03:25:35;;;;;;;0.70;0.52;;;6.20;99.90;;;;;;5091011;28;20573;-65
2023/05/16 03:28:02;;;;;;;1.67;0.68;;;6.20;99.90;;;;;;5110113;28;20031;-65
2023/05/16 03:30:29;;;;;;;1.00;0.80;;;6.20;99.90;;;;;;5074960;28;20118;-66
2023/05/16 03:32:55;;;;;;;0.50;0.50;;;6.20;99.90;;;;;;5109496;28;20032;-66
2023/05/16 03:35:22;;;;;;;0.70;0.30;;;6.10;99.90;;;;;;5074665;28;20118;-65
2023/05/16 03:37:47;;;;;;;0.22;0.22;;;6.10;99.90;;;;;;5091185;28;20122;-65
2023/05/16 03:40:13;;;;;;;0.77;0.40;;;6.10;99.90;;;;;;5091249;28;20470;-65
2023/05/16 03:42:39;;;;;;;0.40;0.20;;;6.10;99.90;;;;;;5092904;28;20039;-65
2023/05/16 03:45:06;;;;;;;1.35;0.73;;;6.00;99.90;;;;;;5094720;28;20039;-65
2023/05/16 03:47:32;;;;;;;0.20;0.20;;;5.90;99.90;;;;;;5095534;28;20096;-65
2023/05/16 03:49:58;;;;;;;4.65;0.85;;;5.90;99.90;;;;;;5113394;28;20109;-65
2023/05/16 03:52:24;;;;;;;2.10;0.32;;;5.90;99.90;;;;;;5094887;28;20430;-65
2023/05/16 03:54:49;;;;;;;0.73;0.38;;;5.80;99.90;;;;;;5113484;28;20071;-65
2023/05/16 03:57:15;;;;;;;0.30;0.20;;;5.80;99.90;;;;;;5095346;28;20761;-65
2023/05/16 03:59:41;;;;;;;0.32;0.30;;;5.70;99.90;;;;;;5094794;28;20400;-65
2023/05/16 04:02:07;;;;;;;0.63;0.25;;;5.70;99.90;;;;;;5095188;28;20485;-65
2023/05/16 04:04:33;;;;;;;0.22;0.22;;;5.60;99.90;;;;;;5095229;28;20044;-65
2023/05/16 04:06:59;;;;;;;0.38;0.20;;;5.60;99.90;;;;;;5112761;28;20042;-65
2023/05/16 04:09:25;;;;;;;0.40;0.28;;;5.60;99.90;;;;;;5078070;28;20127;-65
2023/05/16 04:11:51;;;;;;;0.60;0.40;;;5.60;99.90;;;;;;5113199;28;20115;-65
2023/05/16 04:14:17;;;;;;;5.38;0.75;;;5.50;99.90;;;;;;5077382;28;20101;-65
2023/05/16 04:16:42;;;;;;;0.40;0.40;;;5.60;99.90;;;;;;5113177;28;20484;-65
2023/05/16 04:19:08;;;;;;;0.93;0.43;;;5.60;99.90;;;;;;5094671;28;20416;-65
2023/05/16 04:21:35;;;;;;;1.60;0.20;;;5.60;99.90;;;;;;5094403;28;20031;-65
2023/05/16 04:24:01;;;;;;;1.20;0.32;;;5.70;99.90;;;;;;5113222;28;20036;-65
2023/05/16 04:26:27;;;;;;;0.90;0.82;;;5.70;99.90;;;;;;5094736;28;20046;-65
2023/05/16 04:28:53;;;;;;;0.40;0.30;;;5.80;99.90;;;;;;5093853;28;20032;-65
2023/05/16 04:31:18;;;;;;;0.30;0.20;;;5.80;99.90;;;;;;5094852;28;20058;-65
2023/05/16 04:33:44;;;;;;;3.65;0.60;;;5.90;99.90;;;;;;5112253;28;20515;-65
2023/05/16 04:36:11;;;;;;;1.65;0.40;;;6.00;99.90;;;;;;5094420;28;20035;-65
2023/05/16 04:38:37;;;;;;;3.75;0.65;;;6.00;99.90;;;;;;5112738;28;20391;-65
2023/05/16 04:41:02;;;;;;;3.67;0.50;;;6.10;99.90;;;;;;5093740;28;20039;-65
2023/05/16 04:43:29;;;;;;;0.20;0.20;;;6.20;99.90;;;;;;5094468;28;20097;-66
2023/05/16 04:45:57;;;;;;;0.55;0.50;;;6.30;99.90;;;;;;5112591;28;20122;-65
2023/05/16 04:48:23;;;;;;;0.80;0.40;;;6.40;99.90;;;;;;5111760;28;20457;-65
2023/05/16 04:50:50;;;;;;;0.20;0.20;;;6.40;99.90;;;;;;5112280;28;20112;-65
2023/05/16 04:53:15;;;;;;;0.22;0.20;;;6.50;99.90;;;;;;5093901;28;20044;-65
2023/05/16 04:55:41;;;;;;;0.60;0.40;;;6.60;99.90;;;;;;5111827;28;20089;-65
2023/05/16 04:58:07;;;;;;;0.43;0.35;;;6.70;99.90;;;;;;5112507;28;20032;-65
2023/05/16 05:00:33;;;;;;;0.10;0.10;;;6.80;99.90;;;;;;5112486;28;20069;-65
2023/05/16 05:02:59;;;;;;;0.52;0.52;;;6.90;99.90;;;;;;5093687;28;20046;-65
2023/05/16 05:05:25;;;;;;;0.20;0.20;;;7.00;99.90;;;;;;5112316;28;20401;-65
2023/05/16 05:07:51;;;;;;;0.43;0.43;;;7.10;99.90;;;;;;5093744;28;20043;-65
2023/05/16 05:10:17;;;;;;;0.75;0.52;;;7.30;99.90;;;;;;5111589;28;20046;-65
2023/05/16 05:12:43;;;;;;;0.60;0.60;;;7.40;99.90;;;;;;5111875;28;20035;-66
2023/05/16 05:15:09;;;;;;;0.52;0.35;;;7.50;99.90;;;;;;5093589;28;20173;-66
2023/05/16 05:17:36;;;;;;;0.57;0.30;;;7.60;99.90;;;;;;5093252;28;20472;-66
2023/05/16 05:20:05;;;;;;;0.57;0.32;;;7.80;99.90;;;;;;5093527;28;20126;-66
2023/05/16 05:22:32;;;;;;;0.47;0.30;;;7.90;99.90;;;;;;5111854;28;20499;-66
2023/05/16 05:24:57;;;;;;;3.83;0.45;;;8.10;99.90;;;;;;5093286;28;20056;-66
2023/05/16 05:27:24;;;;;;;1.55;0.50;;;8.20;99.90;;;;;;5093518;28;20040;-66
2023/05/16 05:29:50;;;;;;;1.10;0.85;;;8.40;99.90;;;;;;5092739;28;20123;-66
2023/05/16 05:32:16;;;;;;;2.17;0.63;;;8.50;99.90;;;;;;5111958;28;20118;-66
2023/05/16 05:34:42;;;;;;;0.88;0.63;;;8.60;99.90;;;;;;5111341;28;20669;-66
2023/05/16 05:37:08;;;;;;;5.00;0.80;;;8.70;99.90;;;;;;5075746;28;20032;-66
2023/05/16 05:39:34;;;;;;;0.77;0.43;;;8.90;99.90;;;;;;5111597;28;20031;-65
2023/05/16 05:42:01;;;;;;;1.02;0.45;;;9.00;99.90;;;;;;5092987;28;20040;-66
2023/05/16 05:44:26;;;;;;;0.50;0.20;;;9.10;99.90;;;;;;5110557;28;20046;-65
2023/05/16 05:46:52;;;;;;;2.15;1.13;;;9.20;99.90;;;;;;5092793;28;20118;-65
2023/05/16 05:49:18;;;;;;;0.95;0.68;;;9.30;99.90;;;;;;5092735;28;20052;-65
2023/05/16 05:51:44;;;;;;;1.00;0.50;;;9.50;99.90;;;;;;5092379;28;20040;-65
2023/05/16 05:54:10;;;;;;;3.47;0.60;;;9.70;99.90;;;;;;5111478;28;20043;-63
2023/05/16 05:56:36;;;;;;;1.00;0.65;;;9.90;99.90;;;;;;5092734;28;20387;-64
2023/05/16 05:59:02;;;;;;;0.38;0.30;;;10.20;99.90;;;;;;5110371;28;20047;-65
2023/05/16 06:01:28;;;;;;;0.22;0.15;;;10.40;99.90;;;;;;5093081;28;20032;-65
2023/05/16 06:03:54;;;;;;;0.85;0.30;;;10.50;99.90;;;;;;5111023;28;20082;-66
2023/05/16 06:06:19;;;;;;;0.60;0.20;;;10.60;99.90;;;;;;5109791;28;20051;-64
2023/05/16 06:08:45;;;;;;;0.75;0.43;;;10.70;99.90;;;;;;5092682;28;20121;-66
2023/05/16 06:11:11;;;;;;;0.65;0.20;;;10.70;99.90;;;;;;5110941;28;20039;-66
2023/05/16 06:13:37;;;;;;;0.15;0.13;;;10.70;99.90;;;;;;5110330;28;20031;-66
2023/05/16 06:16:03;;;;;;;0.10;0.10;;;10.70;99.90;;;;;;5075742;28;20043;-65
2023/05/16 06:18:29;;;;;;;0.95;0.43;;;10.80;99.90;;;;;;5075402;28;20043;-65
2023/05/16 06:20:54;;;;;;;0.20;0.20;;;11.00;99.90;;;;;;5110017;28;20036;-65
2023/05/16 06:23:20;;;;;;;0.10;0.10;;;11.10;99.90;;;;;;5092823;28;20122;-65
2023/05/16 06:25:46;;;;;;;1.80;0.20;;;11.30;99.90;;;;;;5074464;28;20108;-65
2023/05/16 06:28:12;;;;;;;0.68;0.63;;;11.40;99.90;;;;;;5091311;28;20130;-65
2023/05/16 06:30:38;;;;;;;0.30;0.30;;;11.40;99.90;;;;;;5091373;28;20035;-65
2023/05/16 06:33:03;;;;;;;1.50;0.45;;;11.50;99.90;;;;;;5108907;28;20042;-64
2023/05/16 06:35:29;;;;;;;0.50;0.47;;;11.60;99.90;;;;;;5074385;28;20035;-66
2023/05/16 06:37:55;;;;;;;1.17;0.60;;;11.60;99.90;;;;;;5091207;28;20035;-66
2023/05/16 06:40:21;;;;;;;0.85;0.20;;;11.70;99.90;;;;;;5090536;28;20145;-65
2023/05/16 06:42:47;;;;;;;2.65;0.40;;;11.70;99.90;;;;;;5109608;28;20069;-64
2023/05/16 06:45:12;;;;;;;1.30;0.30;;;11.60;99.90;;;;;;5109539;28;20488;-66
2023/05/16 06:47:38;;;;;;;0.40;0.20;;;11.60;99.90;;;;;;5090375;28;20130;-65
2023/05/16 06:50:05;;;;;;;0.70;0.20;;;11.60;99.90;;;;;;5090804;28;20066;-65
2023/05/16 06:52:31;;;;;;;1.55;0.65;;;11.80;99.90;;;;;;5091333;28;20043;-65
2023/05/16 06:54:56;;;;;;;0.50;0.30;;;12.00;99.90;;;;;;5090540;28;20495;-66
2023/05/16 06:57:22;;;;;;;0.08;0.08;;;12.20;99.90;;;;;;5090982;28;20556;-65
2023/05/16 06:59:48;;;;;;;0.45;0.30;;;12.40;99.90;;;;;;5109109;28;20039;-65
2023/05/16 07:02:14;;;;;;;0.10;0.10;;;12.60;99.90;;;;;;5108808;28;20161;-65
2023/05/16 07:04:39;;;;;;;1.42;0.20;;;12.80;99.90;;;;;;5109198;28;20395;-64
2023/05/16 07:07:08;;;;;;;0.38;0.30;;;12.90;99.90;;;;;;5090874;28;20139;-63
2023/05/16 07:09:34;;;;;;;0.30;0.30;;;13.00;99.90;;;;;;5090279;28;20107;-64
2023/05/16 07:12:00;;;;;;;0.90;0.55;;;13.10;99.90;;;;;;5090713;28;20054;-64
2023/05/16 07:14:26;;;;;;;0.55;0.10;;;13.20;99.90;;;;;;5090791;28;20047;-64
2023/05/16 07:16:51;;;;;;;0.93;0.20;;;13.10;99.90;;;;;;5110473;28;20479;-65
2023/05/16 07:19:17;;;;;;;0.88;0.50;;;12.80;99.90;;;;;;5094916;28;20042;-64
2023/05/16 07:21:43;;;;;;;0.20;0.20;;;12.30;99.90;;;;;;5112568;28;20037;-64
2023/05/16 07:24:09;;;;;;;1.42;0.30;;;12.10;99.90;;;;;;5113422;28;20035;-65
2023/05/16 07:26:35;;;;;;;0.65;0.40;;;11.80;99.90;;;;;;5094956;28;20499;-64
2023/05/16 07:29:01;;;;;;;0.10;0.10;;;11.60;99.90;;;;;;5112344;28;20079;-64
2023/05/16 07:31:27;;;;;;;1.17;0.47;;;11.70;99.90;;;;;;5094590;28;20077;-65
2023/05/16 07:33:53;;;;;;;0.32;0.17;;;12.00;99.90;;;;;;5094535;28;20039;-64
2023/05/16 07:36:18;;;;;;;0.40;0.13;;;12.50;99.90;;;;;;5094102;28;20036;-64
2023/05/16 07:38:44;;;;;;;1.75;0.40;;;12.90;99.90;;;;;;5112887;28;20492;-63
2023/05/16 07:41:10;;;;;;;1.65;0.30;;;13.30;99.90;;;;;;5077418;28;20043;-64
2023/05/16 07:43:36;;;;;;;1.48;0.15;;;13.60;99.90;;;;;;5093575;28;20047;-64
2023/05/16 07:46:02;;;;;;;0.80;0.20;;;13.90;99.90;;;;;;5112603;28;20036;-64
2023/05/16 07:48:28;;;;;;;0.40;0.15;;;14.10;99.90;;;;;;5093872;28;20051;-64
2023/05/16 07:50:54;;;;;;;4.00;0.85;;;14.40;99.90;;;;;;5093419;28;20048;-65
2023/05/16 07:53:20;;;;;;;1.88;0.68;;;14.50;99.90;;;;;;5112423;28;20066;-64
2023/05/16 07:55:47;;;;;;;0.47;0.20;;;14.50;99.90;;;;;;5112695;28;20402;-64
2023/05/16 07:58:13;;;;;;;1.13;0.30;;;14.60;99.90;;;;;;5111965;28;20046;-64
2023/05/16 08:00:39;;;;;;;0.65;0.20;;;14.50;99.90;;;;;;5077355;28;20035;-64
2023/05/16 08:03:05;;;;;;;0.20;0.10;;;14.40;99.90;;;;;;5093905;28;20047;-64
2023/05/16 08:05:31;;;;;;;0.52;0.20;;;14.30;99.90;;;;;;5093378;28;20046;-65
2023/05/16 08:07:57;;;;;;;0.57;0.20;;;13.90;99.90;;;;;;5112550;28;20043;-64
2023/05/16 08:10:23;;;;;;;1.17;0.40;;;13.70;99.90;;;;;;5113091;28;20110;-63
2023/05/16 08:12:49;;;;;;;0.10;0.10;;;13.40;99.90;;;;;;5094417;28;20039;-64
2023/05/16 08:15:15;;;;;;;0.10;0.10;;;13.20;99.90;;;;;;5094723;28;20050;-64
2023/05/16 08:17:42;;;;;;;2.20;0.20;;;13.20;99.90;;;;;;5093003;28;20036;-66
2023/05/16 08:20:10;;;;;;;0.22;0.10;;;13.40;99.90;;;;;;5111963;28;20130;-65
2023/05/16 08:22:35;;;;;;;0.17;0.17;;;13.60;99.90;;;;;;5094737;28;20049;-65
2023/05/16 08:25:02;;;;;;;0.60;0.22;;;13.90;99.90;;;;;;5112198;28;20040;-65
2023/05/16 08:27:28;;;;;;;0.20;0.10;;;14.20;99.90;;;;;;5094446;28;20044;-65
2023/05/16 08:29:54;;;;;;;3.75;0.63;;;14.50;99.90;;;;;;5112621;28;20035;-65
2023/05/16 08:32:22;;;;;;;0.63;0.20;;;14.80;99.90;;;;;;5112122;28;20059;-66
2023/05/16 08:34:47;;;;;;;0.50;0.17;;;15.00;99.90;;;;;;5077767;28;20375;-65
2023/05/16 08:37:13;;;;;;;0.20;0.20;;;15.20;99.90;;;;;;5094511;28;20040;-64
2023/05/16 08:39:39;;;;;;;0.35;0.30;;;15.30;99.90;;;;;;5111511;28;20031;-65
2023/05/16 08:42:06;;;;;;;0.98;0.73;;;15.60;99.90;;;;;;5094481;28;20058;-66
2023/05/16 08:44:33;;;;;;;0.50;0.15;;;15.80;99.90;;;;;;5077584;28;20062;-65
2023/05/16 08:47:12;;;;;;;0.35;0.20;;;16.00;99.90;;;;;;5093438;28;20040;-65
2023/05/16 08:49:43;;;;;;;2.70;0.35;;;16.00;99.90;;;;;;5111264;28;20055;-65
2023/05/16 08:52:09;;;;;;;0.40;0.20;;;15.70;99.90;;;;;;5094073;28;20035;-65
2023/05/16 08:54:36;;;;;;;1.58;0.28;;;15.30;99.90;;;;;;5109779;28;20502;-65
2023/05/16 08:57:02;;;;;;;0.85;0.20;;;14.70;99.90;;;;;;5092910;28;20039;-66
2023/05/16 08:59:29;;;;;;;1.45;0.52;;;14.20;99.90;;;;;;5093513;28;20039;-65
2023/05/16 09:01:56;;;;;;;0.77;0.38;;;13.80;99.90;;;;;;5091847;28;20376;-65
2023/05/16 09:04:24;;;;;;;1.23;0.57;;;13.80;99.90;;;;;;5111467;28;20047;-66
2023/05/16 09:06:51;;;;;;;3.30;0.52;;;14.10;99.90;;;;;;5075475;28;20051;-65
2023/05/16 09:09:16;;;;;;;0.45;0.30;;;14.60;99.90;;;;;;5092747;28;20126;-64
2023/05/16 09:11:42;;;;;;;0.30;0.10;;;14.80;99.90;;;;;;5092963;28;20147;-65
2023/05/16 09:14:08;;;;;;;0.30;0.10;;;14.80;99.90;;;;;;5092108;28;20466;-64
2023/05/16 09:16:34;;;;;;;3.42;0.57;;;14.60;99.90;;;;;;5092879;28;20119;-65
2023/05/16 09:19:00;;;;;;;1.65;0.40;;;14.30;99.90;;;;;;5110656;28;20047;-65
2023/05/16 09:21:31;;;;;;;1.15;0.30;;;13.90;99.90;;;;;;5092744;28;20040;-66
2023/05/16 09:24:05;;;;;;;0.43;0.30;;;13.80;99.90;;;;;;5092476;28;20522;-65
2023/05/16 09:26:37;;;;;;;0.20;0.20;;;14.20;99.90;;;;;;5111910;28;20036;-66
2023/05/16 09:29:11;;;;;;;0.63;0.52;;;14.70;99.90;;;;;;5076190;28;20051;-66
2023/05/16 09:31:37;;;;;;;1.35;0.30;;;15.20;99.90;;;;;;5076737;28;20376;-66
2023/05/16 09:34:12;;;;;;;2.10;0.50;;;15.50;99.90;;;;;;5093327;28;20384;-65
2023/05/16 09:36:38;;;;;;;0.52;0.20;;;15.50;99.90;;;;;;5111079;28;20027;-64
2023/05/16 09:39:05;;;;;;;3.20;0.35;;;15.30;99.90;;;;;;5111312;28;20788;-65
2023/05/16 09:41:33;;;;;;;0.85;0.25;;;14.90;99.90;;;;;;5092527;28;20043;-64
2023/05/16 09:44:03;;;;;;;1.42;0.63;;;14.50;99.90;;;;;;5111375;28;20040;-64
2023/05/16 09:46:30;;;;;;;0.65;0.30;;;14.10;99.90;;;;;;5111634;28;20400;-65
2023/05/16 09:48:56;;;;;;;3.20;0.38;;;14.10;99.90;;;;;;5110554;28;20059;-65
2023/05/16 09:51:22;;;;;;;2.00;0.28;;;14.60;99.90;;;;;;5111336;28;20031;-64
2023/05/16 09:53:48;;;;;;;6.50;0.95;;;15.20;99.90;;;;;;5092963;28;20042;-64
2023/05/16 09:56:15;;;;;;;3.42;0.60;;;15.80;99.90;;;;;;5092246;28;20035;-65
2023/05/16 09:58:43;;;;;;;1.77;0.43;;;15.80;99.90;;;;;;5093266;28;20035;-64
2023/05/16 10:01:10;;;;;;;0.98;0.30;;;15.30;99.90;;;;;;5076220;28;20071;-63
2023/05/16 10:03:41;;;;;;;0.82;0.50;;;14.80;99.90;;;;;;5092079;28;20147;-64
2023/05/16 10:06:08;;;;;;;0.20;0.10;;;14.40;99.90;;;;;;5075328;28;20495;-65
2023/05/16 10:08:35;;;;;;;4.75;0.45;;;14.40;99.90;;;;;;5091751;28;20140;-64
2023/05/16 10:11:03;;;;;;;1.15;0.40;;;14.70;99.90;;;;;;5092042;28;20047;-65
2023/05/16 10:13:31;;;;;;;1.33;0.20;;;15.10;99.90;;;;;;5092694;28;20036;-65
2023/05/16 10:15:58;;;;;;;0.15;0.10;;;15.30;99.90;;;;;;5092547;28;20043;-64
2023/05/16 10:18:29;;;;;;;0.30;0.22;;;15.00;99.90;;;;;;5092217;28;20032;-64
2023/05/16 10:20:57;;;;;;;1.88;0.40;;;14.60;99.90;;;;;;5092451;28;20031;-64
2023/05/16 10:23:25;;;;;;;0.50;0.30;;;14.20;99.90;;;;;;5110878;28;20040;-63
2023/05/16 10:25:51;;;;;;;0.57;0.28;;;14.50;99.90;;;;;;5091706;28;20514;-65
2023/05/16 10:28:18;;;;;;;2.08;0.65;;;15.10;99.90;;;;;;5092417;28;20069;-64
2023/05/16 10:30:45;;;;;;;2.30;0.35;;;15.60;99.90;;;;;;5110326;28;20034;-65
2023/05/16 10:33:15;;;;;;;0.40;0.20;;;15.90;99.90;;;;;;5092194;28;20534;-64
2023/05/16 10:35:43;;;;;;;0.63;0.30;;;15.90;99.90;;;;;;5092406;28;20084;-64
2023/05/16 10:38:10;;;;;;;1.40;0.65;;;15.70;99.90;;;;;;5092076;28;20063;-65
2023/05/16 10:40:38;;;;;;;0.73;0.28;;;15.40;99.90;;;;;;5110611;28;20048;-65
2023/05/16 10:43:05;;;;;;;0.50;0.13;;;15.20;99.90;;;;;;5075597;28;20039;-63
2023/05/16 10:45:31;;;;;;;1.00;0.30;;;15.60;99.90;;;;;;5091753;28;20044;-64
2023/05/16 10:47:59;;;;;;;3.20;0.32;;;16.00;99.90;;;;;;5109930;28;20514;-65
2023/05/16 10:50:35;;;;;;;1.85;0.40;;;16.40;99.90;;;;;;5110612;28;20663;-65
2023/05/16 10:53:21;;;;;;;0.50;0.30;;;16.70;99.90;;;;;;5109717;28;20135;-64
2023/05/16 10:56:07;;;;;;;2.17;0.35;;;16.40;99.90;;;;;;5075162;28;20108;-64
2023/05/16 10:58:39;;;;;;;0.30;0.30;;;15.80;99.90;;;;;;5091463;28;20045;-64
2023/05/16 11:01:18;;;;;;;1.65;0.22;;;15.20;99.90;;;;;;5075623;28;20083;-64
2023/05/16 11:03:56;;;;;;;0.98;0.38;;;14.70;99.90;;;;;;5092306;28;20070;-64
2023/05/16 11:06:40;;;;;;;0.68;0.20;;;14.20;99.90;;;;;;5091257;28;20073;-64
2023/05/16 11:09:15;;;;;;;1.83;0.82;;;13.60;99.90;;;;;;5110548;28;20158;-65
2023/05/16 11:11:54;;;;;;;0.63;0.40;;;13.30;99.90;;;;;;5110301;28;20028;-65
2023/05/16 11:14:21;;;;;;;0.75;0.32;;;13.10;99.90;;;;;;5091140;28;20503;-65
2023/05/16 11:17:05;;;;;;;0.85;0.25;;;13.20;99.90;;;;;;5075187;28;20046;-66
2023/05/16 11:19:51;;;;;;;0.63;0.20;;;13.30;99.90;;;;;;5110003;28;20500;-67
2023/05/16 11:22:20;;;;;;;0.98;0.43;;;13.30;99.90;;;;;;5091602;28;20385;-67
2023/05/16 11:24:55;;;;;;;0.88;0.13;;;13.40;99.90;;;;;;5091719;28;20139;-66
2023/05/16 11:27:28;;;;;;;0.32;0.30;;;13.70;99.90;;;;;;5109479;28;20088;-66
2023/05/16 11:29:59;;;;;;;0.88;0.28;;;13.90;99.90;;;;;;5092381;28;20373;-67
2023/05/16 11:32:25;;;;;;;1.15;0.30;;;13.80;99.90;;;;;;5074833;28;20122;-67
2023/05/16 11:34:52;;;;;;;2.90;0.40;;;13.90;99.90;;;;;;5090622;28;20131;-65
2023/05/16 11:37:19;;;;;;;1.25;0.32;;;14.40;99.90;;;;;;5091695;28;20040;-66
2023/05/16 11:39:45;;;;;;;2.25;0.40;;;15.10;99.90;;;;;;5110069;28;20042;-66
2023/05/16 11:42:12;;;;;;;0.80;0.30;;;15.60;99.90;;;;;;5109427;28;20110;-66
2023/05/16 11:44:39;;;;;;;3.00;0.28;;;15.90;99.90;;;;;;5091517;28;20039;-65
2023/05/16 11:47:06;;;;;;;0.60;0.17;;;15.70;99.90;;;;;;5110010;28;20039;-66
2023/05/16 11:49:32;;;;;;;3.35;0.40;;;15.50;99.90;;;;;;5073519;28;20058;-66
2023/05/16 11:51:58;;;;;;;0.43;0.30;;;15.50;99.90;;;;;;5109875;28;20035;-66
2023/05/16 11:54:25;;;;;;;2.35;0.40;;;15.60;99.90;;;;;;5091357;28;20044;-65
2023/05/16 11:56:51;;;;;;;1.77;0.50;;;15.60;99.90;;;;;;5090832;28;20115;-67
2023/05/16 11:59:18;;;;;;;1.17;0.25;;;15.40;99.90;;;;;;5091545;28;20036;-67
2023/05/16 12:01:44;;;;;;;0.52;0.30;;;15.40;99.90;;;;;;5091222;28;20035;-67
2023/05/16 12:04:11;;;;;;;1.50;0.90;;;15.30;99.90;;;;;;5094004;28;20047;-68
2023/05/16 12:06:37;;;;;;;2.10;0.50;;;15.20;99.90;;;;;;5078382;28;20426;-67
2023/05/16 12:09:09;;;;;;;1.05;0.32;;;14.80;99.90;;;;;;5094830;28;20399;-69
2023/05/16 12:11:43;;;;;;;0.95;0.40;;;14.30;99.90;;;;;;5095188;28;20043;-68
2023/05/16 12:14:11;;;;;;;0.32;0.20;;;14.10;99.90;;;;;;5095002;28;20082;-66
2023/05/16 12:16:38;;;;;;;1.65;0.55;;;14.40;99.90;;;;;;5094452;28;20095;-65
2023/05/16 12:19:07;;;;;;;1.75;0.70;;;14.80;99.90;;;;;;5094906;28;20032;-68
2023/05/16 12:21:33;;;;;;;;;;;15.00;99.90;;;;;;5113300;28;20538;-67
2023/05/16 12:24:00;;;;;;;2.65;0.32;;;15.20;99.90;;;;;;5112228;28;19920;-65
2023/05/16 12:26:31;;;;;;;1.48;0.40;;;15.50;99.90;;;;;;5077664;28;20047;-67
2023/05/16 12:28:59;;;;;;;0.80;0.28;;;15.60;99.90;;;;;;5113105;28;20042;-67
2023/05/16 12:31:26;;;;;;;2.13;0.75;;;15.60;99.90;;;;;;5094458;28;20035;-65
2023/05/16 12:33:55;;;;;;;0.85;0.35;;;15.50;99.90;;;;;;5094403;28;20044;-65
2023/05/16 12:36:22;;;;;;;;;;;15.70;99.90;;;;;;5113333;28;20369;-65
2023/05/16 12:38:48;;;;;;;1.63;0.65;;;15.90;99.90;;;;;;5093906;28;20387;-66
2023/05/16 12:41:21;;;;;;;0.75;0.63;;;15.80;99.90;;;;;;5094884;28;20116;-65
2023/05/16 12:43:48;;;;;;;0.60;0.30;;;15.50;99.90;;;;;;5093846;28;20039;-65
2023/05/16 12:46:14;;;;;;;2.67;0.68;;;15.30;99.90;;;;;;5094236;28;20040;-65
2023/05/16 12:48:42;;;;;;;2.15;0.60;;;15.00;99.90;;;;;;5090794;28;20583;-66
2023/05/16 12:51:15;;;;;;;1.08;0.50;;;14.70;99.90;;;;;;5091711;28;20621;-66
2023/05/16 12:53:46;;;;;;;1.33;0.50;;;14.50;99.90;;;;;;5090801;28;20105;-65
2023/05/16 12:56:14;;;;;;;0.85;0.40;;;14.60;99.90;;;;;;5090874;28;20036;-64